sensor_id;sensor_type;location;lat;lon;timestamp;P1;durP1;ratioP1;P2;durP2;ratioP2
58643;SDS011;44411;49.994;8.660;2022-11-03T00:02:19;13.25;;;6.82;;
58643;SDS011;44411;49.994;8.660;2022-11-03T00:04:45;14.93;;;7.53;;
58643;SDS011;44411;49.994;8.660;2022-11-03T00:07:10;15.40;;;8.13;;
58643;SDS011;44411;49.994;8.660;2022-11-03T00:09:36;17.13;;;7.30;;
58643;SDS011;44411;49.994;8.660;2022-11-03T00:12:01;12.98;;;7.35;;
58643;SDS011;44411;49.994;8.660;2022-11-03T00:14:26;15.80;;;7.13;;
58643;SDS011;44411;49.994;8.660;2022-11-03T00:16:52;13.88;;;7.65;;
58643;SDS011;44411;49.994;8.660;2022-11-03T00:19:18;15.68;;;7.57;;
58643;SDS011;44411;49.994;8.660;2022-11-03T00:21:43;14.20;;;7.32;;
58643;SDS011;44411;49.994;8.660;2022-11-03T00:24:09;17.85;;;7.95;;
58643;SDS011;44411;49.994;8.660;2022-11-03T00:26:35;16.08;;;7.80;;
58643;SDS011;44411;49.994;8.660;2022-11-03T00:29:11;15.18;;;7.50;;
58643;SDS011;44411;49.994;8.660;2022-11-03T00:31:38;22.20;;;9.13;;
58643;SDS011;44411;49.994;8.660;2022-11-03T00:34:05;18.08;;;8.50;;
58643;SDS011;44411;49.994;8.660;2022-11-03T00:36:35;16.02;;;7.97;;
58643;SDS011;44411;49.994;8.660;2022-11-03T00:39:03;16.42;;;8.48;;
58643;SDS011;44411;49.994;8.660;2022-11-03T00:41:29;16.23;;;8.05;;
58643;SDS011;44411;49.994;8.660;2022-11-03T00:43:55;17.08;;;9.23;;
58643;SDS011;44411;49.994;8.660;2022-11-03T00:46:21;20.45;;;9.23;;
58643;SDS011;44411;49.994;8.660;2022-11-03T00:48:47;15.40;;;8.40;;
58643;SDS011;44411;49.994;8.660;2022-11-03T00:53:43;17.20;;;7.60;;
58643;SDS011;44411;49.994;8.660;2022-11-03T00:56:09;13.48;;;7.60;;
58643;SDS011;44411;49.994;8.660;2022-11-03T00:58:38;16.50;;;7.80;;
58643;SDS011;44411;49.994;8.660;2022-11-03T06:21:45;15.85;;;7.97;;
58643;SDS011;44411;49.994;8.660;2022-11-03T06:24:13;23.90;;;8.70;;
58643;SDS011;44411;49.994;8.660;2022-11-03T06:26:39;14.30;;;8.55;;
58643;SDS011;44411;49.994;8.660;2022-11-03T06:29:13;13.90;;;8.23;;
58643;SDS011;44411;49.994;8.660;2022-11-03T06:31:41;18.52;;;11.00;;
58643;SDS011;44411;49.994;8.660;2022-11-03T06:34:31;24.17;;;13.27;;
58643;SDS011;44411;49.994;8.660;2022-11-03T06:37:04;23.27;;;15.93;;
58643;SDS011;44411;49.994;8.660;2022-11-03T06:39:36;24.10;;;12.70;;
58643;SDS011;44411;49.994;8.660;2022-11-03T06:42:12;21.48;;;9.05;;
58643;SDS011;44411;49.994;8.660;2022-11-03T06:44:48;22.80;;;9.38;;
58643;SDS011;44411;49.994;8.660;2022-11-03T06:47:25;56.80;;;17.75;;
58643;SDS011;44411;49.994;8.660;2022-11-03T06:49:53;20.90;;;8.68;;
58643;SDS011;44411;49.994;8.660;2022-11-03T06:52:30;16.98;;;7.85;;
58643;SDS011;44411;49.994;8.660;2022-11-03T06:57:40;20.75;;;8.77;;
58643;SDS011;44411;49.994;8.660;2022-11-03T07:00:14;15.57;;;7.85;;
58643;SDS011;44411;49.994;8.660;2022-11-03T07:05:38;15.60;;;6.25;;
58643;SDS011;44411;49.994;8.660;2022-11-03T07:08:17;18.27;;;7.10;;
58643;SDS011;44411;49.994;8.660;2022-11-03T07:10:59;10.95;;;6.95;;
58643;SDS011;44411;49.994;8.660;2022-11-03T07:13:28;12.82;;;7.55;;
58643;SDS011;44411;49.994;8.660;2022-11-03T07:15:56;14.32;;;7.25;;
58643;SDS011;44411;49.994;8.660;2022-11-03T07:18:23;14.95;;;7.75;;
58643;SDS011;44411;49.994;8.660;2022-11-03T07:20:49;13.45;;;7.47;;
58643;SDS011;44411;49.994;8.660;2022-11-03T07:23:18;15.63;;;7.35;;
58643;SDS011;44411;49.994;8.660;2022-11-03T07:25:52;16.80;;;7.40;;
58643;SDS011;44411;49.994;8.660;2022-11-03T07:28:19;14.57;;;7.57;;
58643;SDS011;44411;49.994;8.660;2022-11-03T07:30:54;14.98;;;7.32;;
58643;SDS011;44411;49.994;8.660;2022-11-03T07:33:21;11.55;;;7.93;;
58643;SDS011;44411;49.994;8.660;2022-11-03T07:35:50;14.38;;;8.88;;
58643;SDS011;44411;49.994;8.660;2022-11-03T07:38:20;19.20;;;9.57;;
58643;SDS011;44411;49.994;8.660;2022-11-03T07:43:14;17.98;;;9.98;;
58643;SDS011;44411;49.994;8.660;2022-11-03T07:45:43;19.90;;;9.02;;
58643;SDS011;44411;49.994;8.660;2022-11-03T07:51:06;16.52;;;7.88;;
58643;SDS011;44411;49.994;8.660;2022-11-03T07:53:39;11.93;;;6.82;;
58643;SDS011;44411;49.994;8.660;2022-11-03T07:56:26;11.90;;;6.88;;
58643;SDS011;44411;49.994;8.660;2022-11-03T07:59:00;28.05;;;14.50;;
58643;SDS011;44411;49.994;8.660;2022-11-03T08:04:07;20.10;;;13.10;;
58643;SDS011;44411;49.994;8.660;2022-11-03T08:06:36;19.08;;;9.20;;
58643;SDS011;44411;49.994;8.660;2022-11-03T08:09:01;17.55;;;9.27;;
58643;SDS011;44411;49.994;8.660;2022-11-03T08:11:27;15.55;;;8.27;;
58643;SDS011;44411;49.994;8.660;2022-11-03T08:13:52;23.05;;;8.63;;
58643;SDS011;44411;49.994;8.660;2022-11-03T08:16:18;16.27;;;7.90;;
58643;SDS011;44411;49.994;8.660;2022-11-03T08:18:44;16.25;;;7.72;;
58643;SDS011;44411;49.994;8.660;2022-11-03T08:21:10;15.70;;;8.02;;
58643;SDS011;44411;49.994;8.660;2022-11-03T08:23:35;16.92;;;8.90;;
58643;SDS011;44411;49.994;8.660;2022-11-03T08:26:01;15.93;;;7.22;;
58643;SDS011;44411;49.994;8.660;2022-11-03T08:28:26;15.38;;;8.63;;
58643;SDS011;44411;49.994;8.660;2022-11-03T08:30:52;15.95;;;9.73;;
58643;SDS011;44411;49.994;8.660;2022-11-03T08:33:17;17.33;;;8.70;;
58643;SDS011;44411;49.994;8.660;2022-11-03T08:35:43;11.27;;;6.88;;
58643;SDS011;44411;49.994;8.660;2022-11-03T08:38:08;16.48;;;7.47;;
58643;SDS011;44411;49.994;8.660;2022-11-03T08:40:33;18.33;;;7.57;;
58643;SDS011;44411;49.994;8.660;2022-11-03T08:42:59;15.63;;;7.55;;
58643;SDS011;44411;49.994;8.660;2022-11-03T08:45:27;13.90;;;8.35;;
58643;SDS011;44411;49.994;8.660;2022-11-03T08:47:53;14.68;;;7.63;;
58643;SDS011;44411;49.994;8.660;2022-11-03T08:50:19;14.35;;;8.25;;
58643;SDS011;44411;49.994;8.660;2022-11-03T08:52:45;15.88;;;7.43;;
58643;SDS011;44411;49.994;8.660;2022-11-03T08:55:10;14.07;;;7.22;;
58643;SDS011;44411;49.994;8.660;2022-11-03T08:57:36;18.15;;;8.38;;
58643;SDS011;44411;49.994;8.660;2022-11-03T09:00:02;13.07;;;7.15;;
58643;SDS011;44411;49.994;8.660;2022-11-03T09:02:30;12.65;;;6.45;;
58643;SDS011;44411;49.994;8.660;2022-11-03T09:04:55;9.68;;;6.72;;
58643;SDS011;44411;49.994;8.660;2022-11-03T09:07:20;13.50;;;6.93;;
58643;SDS011;44411;49.994;8.660;2022-11-03T09:09:46;13.23;;;7.20;;
58643;SDS011;44411;49.994;8.660;2022-11-03T09:12:11;11.93;;;5.75;;
58643;SDS011;44411;49.994;8.660;2022-11-03T09:14:37;14.15;;;6.53;;
58643;SDS011;44411;49.994;8.660;2022-11-03T09:17:03;13.13;;;6.45;;
58643;SDS011;44411;49.994;8.660;2022-11-03T09:19:28;10.55;;;6.07;;
58643;SDS011;44411;49.994;8.660;2022-11-03T09:21:54;12.55;;;6.55;;
58643;SDS011;44411;49.994;8.660;2022-11-03T09:24:19;12.05;;;5.97;;
58643;SDS011;44411;49.994;8.660;2022-11-03T09:26:45;13.15;;;6.00;;
58643;SDS011;44411;49.994;8.660;2022-11-03T09:29:10;11.52;;;5.72;;
58643;SDS011;44411;49.994;8.660;2022-11-03T09:31:38;9.27;;;6.22;;
58643;SDS011;44411;49.994;8.660;2022-11-03T09:34:06;10.77;;;5.63;;
58643;SDS011;44411;49.994;8.660;2022-11-03T09:36:31;10.48;;;5.53;;
58643;SDS011;44411;49.994;8.660;2022-11-03T09:38:57;16.00;;;5.85;;
58643;SDS011;44411;49.994;8.660;2022-11-03T09:41:22;11.95;;;5.70;;
58643;SDS011;44411;49.994;8.660;2022-11-03T09:43:48;12.35;;;6.00;;
58643;SDS011;44411;49.994;8.660;2022-11-03T09:46:13;9.60;;;5.53;;
58643;SDS011;44411;49.994;8.660;2022-11-03T09:48:40;10.82;;;5.60;;
58643;SDS011;44411;49.994;8.660;2022-11-03T09:51:09;13.70;;;5.68;;
58643;SDS011;44411;49.994;8.660;2022-11-03T09:53:41;16.65;;;6.18;;
58643;SDS011;44411;49.994;8.660;2022-11-03T09:56:08;10.75;;;5.47;;
58643;SDS011;44411;49.994;8.660;2022-11-03T10:01:02;14.48;;;5.88;;
58643;SDS011;44411;49.994;8.660;2022-11-03T10:03:28;8.88;;;4.80;;
58643;SDS011;44411;49.994;8.660;2022-11-03T10:05:54;11.10;;;5.22;;
58643;SDS011;44411;49.994;8.660;2022-11-03T10:08:21;9.43;;;5.78;;
58643;SDS011;44411;49.994;8.660;2022-11-03T10:10:47;9.60;;;5.90;;
58643;SDS011;44411;49.994;8.660;2022-11-03T10:13:16;10.77;;;5.45;;
58643;SDS011;44411;49.994;8.660;2022-11-03T10:16:02;12.60;;;4.90;;
58643;SDS011;44411;49.994;8.660;2022-11-03T10:18:30;13.05;;;4.85;;
58643;SDS011;44411;49.994;8.660;2022-11-03T10:20:58;9.20;;;4.65;;
58643;SDS011;44411;49.994;8.660;2022-11-03T10:23:31;9.88;;;4.80;;
58643;SDS011;44411;49.994;8.660;2022-11-03T10:26:19;9.52;;;5.43;;
58643;SDS011;44411;49.994;8.660;2022-11-03T10:31:30;14.25;;;4.75;;
58643;SDS011;44411;49.994;8.660;2022-11-03T10:33:57;12.63;;;4.80;;
58643;SDS011;44411;49.994;8.660;2022-11-03T10:36:24;13.75;;;4.53;;
58643;SDS011;44411;49.994;8.660;2022-11-03T10:38:51;8.77;;;4.72;;
58643;SDS011;44411;49.994;8.660;2022-11-03T10:41:21;9.63;;;4.72;;
58643;SDS011;44411;49.994;8.660;2022-11-03T10:44:00;10.75;;;4.75;;
58643;SDS011;44411;49.994;8.660;2022-11-03T10:46:35;10.40;;;4.40;;
58643;SDS011;44411;49.994;8.660;2022-11-03T10:49:14;10.90;;;4.60;;
58643;SDS011;44411;49.994;8.660;2022-11-03T10:54:09;11.80;;;5.10;;
58643;SDS011;44411;49.994;8.660;2022-11-03T10:56:36;11.68;;;5.28;;
58643;SDS011;44411;49.994;8.660;2022-11-03T10:59:02;10.25;;;4.50;;
58643;SDS011;44411;49.994;8.660;2022-11-03T11:01:28;12.73;;;5.10;;
58643;SDS011;44411;49.994;8.660;2022-11-03T11:03:54;7.72;;;4.15;;
58643;SDS011;44411;49.994;8.660;2022-11-03T11:06:21;13.35;;;4.72;;
58643;SDS011;44411;49.994;8.660;2022-11-03T11:08:52;13.68;;;5.15;;
58643;SDS011;44411;49.994;8.660;2022-11-03T11:11:20;11.85;;;4.78;;
58643;SDS011;44411;49.994;8.660;2022-11-03T11:14:19;15.45;;;4.47;;
58643;SDS011;44411;49.994;8.660;2022-11-03T11:19:19;7.78;;;4.63;;
58643;SDS011;44411;49.994;8.660;2022-11-03T11:30:05;13.63;;;4.13;;
58643;SDS011;44411;49.994;8.660;2022-11-03T11:32:58;8.60;;;3.67;;
58643;SDS011;44411;49.994;8.660;2022-11-03T11:37:50;8.80;;;3.28;;
58643;SDS011;44411;49.994;8.660;2022-11-03T11:48:37;12.52;;;6.70;;
58643;SDS011;44411;49.994;8.660;2022-11-03T11:51:06;10.68;;;6.15;;
58643;SDS011;44411;49.994;8.660;2022-11-03T11:53:36;10.63;;;3.78;;
58643;SDS011;44411;49.994;8.660;2022-11-03T11:56:07;8.30;;;3.63;;
58643;SDS011;44411;49.994;8.660;2022-11-03T12:06:41;7.78;;;3.92;;
58643;SDS011;44411;49.994;8.660;2022-11-03T12:09:07;9.38;;;4.28;;
58643;SDS011;44411;49.994;8.660;2022-11-03T12:11:52;9.40;;;3.53;;
58643;SDS011;44411;49.994;8.660;2022-11-03T12:16:58;12.25;;;4.20;;
58643;SDS011;44411;49.994;8.660;2022-11-03T12:19:48;11.23;;;3.63;;
58643;SDS011;44411;49.994;8.660;2022-11-03T12:24:56;9.32;;;3.55;;
58643;SDS011;44411;49.994;8.660;2022-11-03T12:29:53;7.57;;;4.28;;
58643;SDS011;44411;49.994;8.660;2022-11-03T12:32:23;10.07;;;4.68;;
58643;SDS011;44411;49.994;8.660;2022-11-03T12:34:49;12.15;;;4.90;;
58643;SDS011;44411;49.994;8.660;2022-11-03T12:37:14;13.88;;;5.00;;
58643;SDS011;44411;49.994;8.660;2022-11-03T12:39:40;12.85;;;5.65;;
58643;SDS011;44411;49.994;8.660;2022-11-03T12:42:05;12.82;;;5.95;;
58643;SDS011;44411;49.994;8.660;2022-11-03T12:44:31;12.13;;;5.35;;
58643;SDS011;44411;49.994;8.660;2022-11-03T12:46:57;11.30;;;5.80;;
58643;SDS011;44411;49.994;8.660;2022-11-03T12:49:23;13.40;;;6.22;;
58643;SDS011;44411;49.994;8.660;2022-11-03T12:51:48;16.33;;;7.20;;
58643;SDS011;44411;49.994;8.660;2022-11-03T12:54:13;11.52;;;5.78;;
58643;SDS011;44411;49.994;8.660;2022-11-03T12:56:39;13.25;;;6.40;;
58643;SDS011;44411;49.994;8.660;2022-11-03T12:59:04;10.85;;;5.53;;
58643;SDS011;44411;49.994;8.660;2022-11-03T13:01:30;12.00;;;6.40;;
58643;SDS011;44411;49.994;8.660;2022-11-03T13:03:57;10.80;;;5.43;;
58643;SDS011;44411;49.994;8.660;2022-11-03T13:06:22;11.50;;;5.97;;
58643;SDS011;44411;49.994;8.660;2022-11-03T13:08:48;12.13;;;6.22;;
58643;SDS011;44411;49.994;8.660;2022-11-03T13:11:14;13.93;;;6.38;;
58643;SDS011;44411;49.994;8.660;2022-11-03T13:13:58;12.65;;;6.45;;
58643;SDS011;44411;49.994;8.660;2022-11-03T13:16:23;17.08;;;6.10;;
58643;SDS011;44411;49.994;8.660;2022-11-03T13:18:49;12.00;;;5.60;;
58643;SDS011;44411;49.994;8.660;2022-11-03T13:21:14;13.80;;;6.63;;
58643;SDS011;44411;49.994;8.660;2022-11-03T13:23:40;16.17;;;5.90;;
58643;SDS011;44411;49.994;8.660;2022-11-03T13:26:06;12.73;;;6.70;;
58643;SDS011;44411;49.994;8.660;2022-11-03T13:28:31;15.02;;;6.75;;
58643;SDS011;44411;49.994;8.660;2022-11-03T13:30:57;11.38;;;5.75;;
58643;SDS011;44411;49.994;8.660;2022-11-03T13:33:22;11.70;;;5.43;;
58643;SDS011;44411;49.994;8.660;2022-11-03T13:35:48;12.00;;;6.43;;
58643;SDS011;44411;49.994;8.660;2022-11-03T13:38:13;22.98;;;9.52;;
58643;SDS011;44411;49.994;8.660;2022-11-03T13:40:38;20.25;;;9.18;;
58643;SDS011;44411;49.994;8.660;2022-11-03T13:43:04;19.80;;;12.20;;
58643;SDS011;44411;49.994;8.660;2022-11-03T13:45:29;19.45;;;12.35;;
58643;SDS011;44411;49.994;8.660;2022-11-03T13:47:54;17.67;;;11.30;;
58643;SDS011;44411;49.994;8.660;2022-11-03T13:50:21;22.90;;;11.48;;
58643;SDS011;44411;49.994;8.660;2022-11-03T13:52:46;20.52;;;11.70;;
58643;SDS011;44411;49.994;8.660;2022-11-03T13:55:12;17.73;;;11.65;;
58643;SDS011;44411;49.994;8.660;2022-11-03T13:57:37;23.00;;;12.13;;
58643;SDS011;44411;49.994;8.660;2022-11-03T14:00:03;21.27;;;11.68;;
58643;SDS011;44411;49.994;8.660;2022-11-03T14:02:29;24.02;;;11.80;;
58643;SDS011;44411;49.994;8.660;2022-11-03T14:04:55;17.77;;;11.68;;
58643;SDS011;44411;49.994;8.660;2022-11-03T14:07:20;20.17;;;11.98;;
58643;SDS011;44411;49.994;8.660;2022-11-03T14:09:45;21.73;;;11.60;;
58643;SDS011;44411;49.994;8.660;2022-11-03T14:12:11;16.70;;;10.20;;
58643;SDS011;44411;49.994;8.660;2022-11-03T14:14:55;17.88;;;9.68;;
58643;SDS011;44411;49.994;8.660;2022-11-03T14:17:24;18.90;;;9.15;;
58643;SDS011;44411;49.994;8.660;2022-11-03T14:19:49;17.92;;;8.18;;
58643;SDS011;44411;49.994;8.660;2022-11-03T14:22:15;15.32;;;6.97;;
58643;SDS011;44411;49.994;8.660;2022-11-03T14:24:41;17.42;;;6.85;;
58643;SDS011;44411;49.994;8.660;2022-11-03T14:27:07;11.93;;;6.35;;
58643;SDS011;44411;49.994;8.660;2022-11-03T14:29:32;12.43;;;6.47;;
58643;SDS011;44411;49.994;8.660;2022-11-03T14:31:58;13.13;;;6.80;;
58643;SDS011;44411;49.994;8.660;2022-11-03T14:34:24;15.85;;;6.53;;
58643;SDS011;44411;49.994;8.660;2022-11-03T14:36:49;10.88;;;6.10;;
58643;SDS011;44411;49.994;8.660;2022-11-03T14:39:14;11.85;;;4.65;;
58643;SDS011;44411;49.994;8.660;2022-11-03T14:41:40;12.10;;;4.22;;
58643;SDS011;44411;49.994;8.660;2022-11-03T14:44:24;11.85;;;5.28;;
58643;SDS011;44411;49.994;8.660;2022-11-03T14:46:49;9.77;;;4.22;;
58643;SDS011;44411;49.994;8.660;2022-11-03T14:49:14;9.73;;;4.85;;
58643;SDS011;44411;49.994;8.660;2022-11-03T14:51:40;13.57;;;5.30;;
58643;SDS011;44411;49.994;8.660;2022-11-03T14:54:05;12.40;;;4.78;;
58643;SDS011;44411;49.994;8.660;2022-11-03T14:56:30;9.88;;;4.80;;
58643;SDS011;44411;49.994;8.660;2022-11-03T14:58:56;9.82;;;4.80;;
58643;SDS011;44411;49.994;8.660;2022-11-03T15:01:21;13.55;;;4.95;;
58643;SDS011;44411;49.994;8.660;2022-11-03T15:03:47;12.30;;;4.05;;
58643;SDS011;44411;49.994;8.660;2022-11-03T15:06:12;9.13;;;3.90;;
58643;SDS011;44411;49.994;8.660;2022-11-03T15:08:40;8.88;;;4.00;;
58643;SDS011;44411;49.994;8.660;2022-11-03T15:11:06;8.00;;;3.72;;
58643;SDS011;44411;49.994;8.660;2022-11-03T15:13:33;7.80;;;4.35;;
58643;SDS011;44411;49.994;8.660;2022-11-03T15:15:59;10.07;;;4.45;;
58643;SDS011;44411;49.994;8.660;2022-11-03T15:18:24;8.35;;;4.00;;
58643;SDS011;44411;49.994;8.660;2022-11-03T15:20:50;7.47;;;4.13;;
58643;SDS011;44411;49.994;8.660;2022-11-03T15:23:15;12.63;;;4.00;;
58643;SDS011;44411;49.994;8.660;2022-11-03T15:25:40;10.55;;;5.88;;
58643;SDS011;44411;49.994;8.660;2022-11-03T15:28:06;7.93;;;3.78;;
58643;SDS011;44411;49.994;8.660;2022-11-03T15:30:31;11.48;;;4.18;;
58643;SDS011;44411;49.994;8.660;2022-11-03T15:32:56;10.25;;;4.50;;
58643;SDS011;44411;49.994;8.660;2022-11-03T15:35:22;8.15;;;4.30;;
58643;SDS011;44411;49.994;8.660;2022-11-03T15:37:48;11.07;;;5.22;;
58643;SDS011;44411;49.994;8.660;2022-11-03T15:40:14;8.55;;;4.05;;
58643;SDS011;44411;49.994;8.660;2022-11-03T15:42:40;10.27;;;4.20;;
58643;SDS011;44411;49.994;8.660;2022-11-03T15:45:06;10.13;;;4.38;;
58643;SDS011;44411;49.994;8.660;2022-11-03T15:47:34;6.57;;;3.22;;
58643;SDS011;44411;49.994;8.660;2022-11-03T15:49:59;10.95;;;4.80;;
58643;SDS011;44411;49.994;8.660;2022-11-03T15:52:24;11.38;;;3.88;;
58643;SDS011;44411;49.994;8.660;2022-11-03T15:54:50;9.73;;;4.22;;
58643;SDS011;44411;49.994;8.660;2022-11-03T15:57:15;7.95;;;4.18;;
58643;SDS011;44411;49.994;8.660;2022-11-03T15:59:40;8.02;;;4.10;;
58643;SDS011;44411;49.994;8.660;2022-11-03T16:02:06;8.20;;;4.10;;
58643;SDS011;44411;49.994;8.660;2022-11-03T16:04:32;9.95;;;3.78;;
58643;SDS011;44411;49.994;8.660;2022-11-03T16:06:57;8.65;;;3.55;;
58643;SDS011;44411;49.994;8.660;2022-11-03T16:09:22;8.07;;;4.13;;
58643;SDS011;44411;49.994;8.660;2022-11-03T16:11:48;9.40;;;3.83;;
58643;SDS011;44411;49.994;8.660;2022-11-03T16:14:13;9.98;;;4.40;;
58643;SDS011;44411;49.994;8.660;2022-11-03T16:16:39;8.95;;;4.32;;
58643;SDS011;44411;49.994;8.660;2022-11-03T16:19:04;11.02;;;4.88;;
58643;SDS011;44411;49.994;8.660;2022-11-03T16:21:29;9.68;;;5.15;;
58643;SDS011;44411;49.994;8.660;2022-11-03T16:23:55;12.13;;;5.00;;
58643;SDS011;44411;49.994;8.660;2022-11-03T16:26:20;11.23;;;5.00;;
58643;SDS011;44411;49.994;8.660;2022-11-03T16:28:48;8.18;;;4.80;;
58643;SDS011;44411;49.994;8.660;2022-11-03T16:31:14;10.60;;;5.75;;
58643;SDS011;44411;49.994;8.660;2022-11-03T16:33:39;10.20;;;6.20;;
58643;SDS011;44411;49.994;8.660;2022-11-03T16:36:05;9.55;;;5.22;;
58643;SDS011;44411;49.994;8.660;2022-11-03T16:38:30;11.43;;;5.22;;
58643;SDS011;44411;49.994;8.660;2022-11-03T16:40:56;8.50;;;4.63;;
58643;SDS011;44411;49.994;8.660;2022-11-03T16:43:21;10.35;;;4.65;;
58643;SDS011;44411;49.994;8.660;2022-11-03T16:45:46;11.95;;;6.50;;
58643;SDS011;44411;49.994;8.660;2022-11-03T16:48:12;8.18;;;5.10;;
58643;SDS011;44411;49.994;8.660;2022-11-03T16:50:37;8.77;;;5.63;;
58643;SDS011;44411;49.994;8.660;2022-11-03T16:53:02;11.32;;;6.47;;
58643;SDS011;44411;49.994;8.660;2022-11-03T16:55:28;13.35;;;6.88;;
58643;SDS011;44411;49.994;8.660;2022-11-03T16:57:53;13.52;;;6.80;;
58643;SDS011;44411;49.994;8.660;2022-11-03T17:00:19;16.38;;;7.05;;
58643;SDS011;44411;49.994;8.660;2022-11-03T17:02:45;9.75;;;6.63;;
58643;SDS011;44411;49.994;8.660;2022-11-03T17:05:11;14.10;;;7.90;;
58643;SDS011;44411;49.994;8.660;2022-11-03T17:07:37;12.02;;;7.15;;
58643;SDS011;44411;49.994;8.660;2022-11-03T17:10:04;11.60;;;7.00;;
58643;SDS011;44411;49.994;8.660;2022-11-03T17:12:30;14.10;;;8.43;;
58643;SDS011;44411;49.994;8.660;2022-11-03T17:14:55;15.32;;;8.82;;
58643;SDS011;44411;49.994;8.660;2022-11-03T17:17:21;16.17;;;8.82;;
58643;SDS011;44411;49.994;8.660;2022-11-03T17:19:46;14.90;;;8.55;;
58643;SDS011;44411;49.994;8.660;2022-11-03T17:22:12;15.43;;;8.77;;
58643;SDS011;44411;49.994;8.660;2022-11-03T17:24:37;14.80;;;8.77;;
58643;SDS011;44411;49.994;8.660;2022-11-03T17:27:16;15.48;;;8.93;;
58643;SDS011;44411;49.994;8.660;2022-11-03T17:29:47;17.58;;;9.13;;
58643;SDS011;44411;49.994;8.660;2022-11-03T17:32:22;16.65;;;8.63;;
58643;SDS011;44411;49.994;8.660;2022-11-03T17:34:50;12.32;;;9.32;;
58643;SDS011;44411;49.994;8.660;2022-11-03T17:37:17;18.83;;;9.85;;
58643;SDS011;44411;49.994;8.660;2022-11-03T17:39:43;14.55;;;9.68;;
58643;SDS011;44411;49.994;8.660;2022-11-03T17:45:04;16.98;;;9.80;;
58643;SDS011;44411;49.994;8.660;2022-11-03T17:47:30;16.15;;;10.98;;
58643;SDS011;44411;49.994;8.660;2022-11-03T17:49:55;16.52;;;10.98;;
58643;SDS011;44411;49.994;8.660;2022-11-03T17:52:24;16.08;;;9.15;;
58643;SDS011;44411;49.994;8.660;2022-11-03T17:54:52;13.50;;;9.25;;
58643;SDS011;44411;49.994;8.660;2022-11-03T17:57:22;14.52;;;10.32;;
58643;SDS011;44411;49.994;8.660;2022-11-03T17:59:52;12.10;;;8.93;;
58643;SDS011;44411;49.994;8.660;2022-11-03T18:02:20;17.17;;;9.48;;
58643;SDS011;44411;49.994;8.660;2022-11-03T18:04:48;17.33;;;10.10;;
58643;SDS011;44411;49.994;8.660;2022-11-03T18:09:45;18.30;;;10.18;;
58643;SDS011;44411;49.994;8.660;2022-11-03T18:12:11;19.05;;;12.18;;
58643;SDS011;44411;49.994;8.660;2022-11-03T18:14:58;20.88;;;12.27;;
58643;SDS011;44411;49.994;8.660;2022-11-03T18:17:29;21.13;;;13.65;;
58643;SDS011;44411;49.994;8.660;2022-11-03T18:19:55;24.77;;;15.40;;
58643;SDS011;44411;49.994;8.660;2022-11-03T18:22:23;21.90;;;14.38;;
58643;SDS011;44411;49.994;8.660;2022-11-03T18:24:50;24.20;;;15.68;;
58643;SDS011;44411;49.994;8.660;2022-11-03T18:27:16;25.35;;;14.43;;
58643;SDS011;44411;49.994;8.660;2022-11-03T18:29:42;24.77;;;14.40;;
58643;SDS011;44411;49.994;8.660;2022-11-03T18:32:14;24.10;;;14.27;;
58643;SDS011;44411;49.994;8.660;2022-11-03T18:34:41;19.42;;;13.85;;
58643;SDS011;44411;49.994;8.660;2022-11-03T18:37:08;23.25;;;14.43;;
58643;SDS011;44411;49.994;8.660;2022-11-03T18:39:34;27.45;;;15.13;;
58643;SDS011;44411;49.994;8.660;2022-11-03T18:42:00;21.67;;;14.02;;
58643;SDS011;44411;49.994;8.660;2022-11-03T18:44:26;16.50;;;10.93;;
58643;SDS011;44411;49.994;8.660;2022-11-03T18:46:53;18.75;;;11.40;;
58643;SDS011;44411;49.994;8.660;2022-11-03T18:49:22;17.55;;;10.80;;
58643;SDS011;44411;49.994;8.660;2022-11-03T18:54:22;17.70;;;10.10;;
58643;SDS011;44411;49.994;8.660;2022-11-03T18:56:52;15.88;;;10.07;;
58643;SDS011;44411;49.994;8.660;2022-11-03T19:01:44;15.50;;;10.38;;
58643;SDS011;44411;49.994;8.660;2022-11-03T19:04:10;17.85;;;10.15;;
58643;SDS011;44411;49.994;8.660;2022-11-03T19:06:39;14.90;;;9.85;;
58643;SDS011;44411;49.994;8.660;2022-11-03T19:09:05;13.60;;;9.63;;
58643;SDS011;44411;49.994;8.660;2022-11-03T19:11:30;19.55;;;8.93;;
58643;SDS011;44411;49.994;8.660;2022-11-03T19:13:56;15.90;;;8.77;;
58643;SDS011;44411;49.994;8.660;2022-11-03T19:17:15;14.52;;;8.77;;
58643;SDS011;44411;49.994;8.660;2022-11-03T19:20:40;15.80;;;9.05;;
58643;SDS011;44411;49.994;8.660;2022-11-03T19:24:04;17.05;;;9.30;;
58643;SDS011;44411;49.994;8.660;2022-11-03T19:26:44;16.70;;;10.45;;
58643;SDS011;44411;49.994;8.660;2022-11-03T19:30:11;18.58;;;11.43;;
58643;SDS011;44411;49.994;8.660;2022-11-03T19:33:45;16.90;;;12.13;;
58643;SDS011;44411;49.994;8.660;2022-11-03T19:37:10;21.95;;;13.35;;
58643;SDS011;44411;49.994;8.660;2022-11-03T19:40:36;20.58;;;13.73;;
58643;SDS011;44411;49.994;8.660;2022-11-03T19:44:19;22.70;;;15.77;;
58643;SDS011;44411;49.994;8.660;2022-11-03T19:47:57;18.27;;;15.13;;
58643;SDS011;44411;49.994;8.660;2022-11-03T19:50:45;21.08;;;16.13;;
58643;SDS011;44411;49.994;8.660;2022-11-03T19:53:12;24.83;;;16.42;;
58643;SDS011;44411;49.994;8.660;2022-11-03T19:56:40;20.58;;;14.63;;
58643;SDS011;44411;49.994;8.660;2022-11-03T20:03:54;20.80;;;15.93;;
58643;SDS011;44411;49.994;8.660;2022-11-03T20:07:18;25.55;;;16.38;;
58643;SDS011;44411;49.994;8.660;2022-11-03T20:10:44;22.67;;;16.02;;
58643;SDS011;44411;49.994;8.660;2022-11-03T20:14:10;25.85;;;16.85;;
58643;SDS011;44411;49.994;8.660;2022-11-03T20:17:43;22.55;;;15.90;;
58643;SDS011;44411;49.994;8.660;2022-11-03T20:21:10;26.30;;;16.75;;
58643;SDS011;44411;49.994;8.660;2022-11-03T20:24:39;26.00;;;17.65;;
58643;SDS011;44411;49.994;8.660;2022-11-03T20:28:15;22.95;;;17.33;;
58643;SDS011;44411;49.994;8.660;2022-11-03T20:31:41;23.33;;;16.33;;
58643;SDS011;44411;49.994;8.660;2022-11-03T20:35:06;21.65;;;14.48;;
58643;SDS011;44411;49.994;8.660;2022-11-03T20:38:30;17.42;;;13.13;;
58643;SDS011;44411;49.994;8.660;2022-11-03T20:41:54;16.65;;;10.75;;
58643;SDS011;44411;49.994;8.660;2022-11-03T20:45:23;16.55;;;10.73;;
58643;SDS011;44411;49.994;8.660;2022-11-03T20:48:49;14.40;;;10.10;;
58643;SDS011;44411;49.994;8.660;2022-11-03T20:52:13;13.82;;;8.75;;
58643;SDS011;44411;49.994;8.660;2022-11-03T20:55:39;14.18;;;8.48;;
58643;SDS011;44411;49.994;8.660;2022-11-03T20:59:03;12.68;;;7.72;;
58643;SDS011;44411;49.994;8.660;2022-11-03T21:02:27;12.98;;;8.63;;
58643;SDS011;44411;49.994;8.660;2022-11-03T21:05:52;12.05;;;7.40;;
58643;SDS011;44411;49.994;8.660;2022-11-03T21:09:16;12.60;;;7.25;;
58643;SDS011;44411;49.994;8.660;2022-11-03T21:12:42;10.90;;;6.45;;
58643;SDS011;44411;49.994;8.660;2022-11-03T21:16:07;10.90;;;7.25;;
58643;SDS011;44411;49.994;8.660;2022-11-03T21:19:55;11.40;;;6.38;;
58643;SDS011;44411;49.994;8.660;2022-11-03T21:23:21;9.80;;;6.03;;
58643;SDS011;44411;49.994;8.660;2022-11-03T21:26:45;9.88;;;5.57;;
58643;SDS011;44411;49.994;8.660;2022-11-03T21:30:10;10.38;;;6.22;;
58643;SDS011;44411;49.994;8.660;2022-11-03T21:33:36;12.35;;;6.25;;
58643;SDS011;44411;49.994;8.660;2022-11-03T21:37:00;9.40;;;5.90;;
58643;SDS011;44411;49.994;8.660;2022-11-03T21:40:24;11.02;;;6.20;;
58643;SDS011;44411;49.994;8.660;2022-11-03T21:44:07;9.13;;;6.57;;
58643;SDS011;44411;49.994;8.660;2022-11-03T21:47:31;12.38;;;6.93;;
58643;SDS011;44411;49.994;8.660;2022-11-03T21:51:13;13.52;;;7.80;;
58643;SDS011;44411;49.994;8.660;2022-11-03T21:54:39;13.73;;;7.70;;
58643;SDS011;44411;49.994;8.660;2022-11-03T21:58:03;14.48;;;8.20;;